Terminal Aerodrome Forecast
Issued by NWS Anchorage, AK

Home | Current Version | Previous Version | Text Only | Print | Product List | Glossary On
Versions: 1 2 3 4 5 6 7 8 9 10 11 12 13 14 15 16 17 18 19 20 21 22 23 24 25 26 27 28 29 30 31
622
FTAK31 PANC 112336
TAFANC
TAF
PANC 112336Z 1200/1306 34008KT P6SM BKN060 BKN100 WS020/12045KT
     FM120600 01003KT P6SM BKN100
     FM121800 03005KT P6SM VCSH SCT040 BKN070
     FM122100 36004KT P6SM BKN100=

USA.gov is the U.S. government's official web portal to all federal, state and local government web resources and services.